Time;durP1;ratioP1;P1;durP2;ratioP2;P2;SDS_P1;SDS_P2;PMS_P1;PMS_P2;Temp;Humidity;BMP_temperature;BMP_pressure;BME280_temperature;BME280_humidity;BME280_pressure;Samples;Min_cycle;Max_cycle;Signal;HPM_P1;HPM_P2
2022/03/05 00:00:35;;;;;;;39.87;22.53;;;3.20;99.90;;;;;;4992989;28;20215;-70
2022/03/05 00:03:01;;;;;;;36.20;19.90;;;3.20;99.90;;;;;;5008286;28;20230;-70
2022/03/05 00:05:27;;;;;;;35.63;20.53;;;3.20;99.90;;;;;;5006671;28;20561;-70
2022/03/05 00:07:53;;;;;;;34.27;20.33;;;3.10;99.90;;;;;;5007304;28;20204;-70
2022/03/05 00:10:19;;;;;;;41.97;22.47;;;3.10;99.90;;;;;;4993968;28;20199;-70
2022/03/05 00:12:49;;;;;;;38.70;20.97;;;3.10;99.90;;;;;;4995487;28;20192;-70
2022/03/05 00:15:16;;;;;;;38.07;20.77;;;3.10;99.90;;;;;;4992114;28;20192;-70
2022/03/05 00:17:42;;;;;;;38.70;23.17;;;3.10;99.90;;;;;;4994277;28;20184;-70
2022/03/05 00:20:08;;;;;;;34.10;21.60;;;3.10;99.90;;;;;;4994061;28;20657;-70
2022/03/05 00:22:34;;;;;;;45.23;23.47;;;3.10;99.90;;;;;;4993565;28;20191;-70
2022/03/05 00:25:00;;;;;;;36.53;21.93;;;3.10;99.90;;;;;;5007857;28;20215;-71
2022/03/05 00:27:25;;;;;;;38.80;22.83;;;3.10;99.90;;;;;;5011281;28;20582;-72
2022/03/05 00:29:52;;;;;;;50.07;23.30;;;3.10;99.90;;;;;;5003897;28;20214;-71
2022/03/05 00:32:18;;;;;;;44.37;23.13;;;3.00;99.90;;;;;;5001319;28;20278;-70
2022/03/05 00:34:44;;;;;;;46.17;23.77;;;2.90;99.90;;;;;;5005005;28;20712;-73
2022/03/05 00:37:10;;;;;;;41.83;22.90;;;2.90;99.90;;;;;;4991709;28;20198;-70
2022/03/05 00:39:36;;;;;;;40.13;22.73;;;2.80;99.90;;;;;;5005023;28;20644;-70
2022/03/05 00:42:02;;;;;;;44.20;22.33;;;2.80;99.90;;;;;;5007907;28;20253;-70
2022/03/05 00:44:28;;;;;;;39.10;22.17;;;2.70;99.90;;;;;;4993050;28;20220;-72
2022/03/05 00:46:54;;;;;;;45.40;22.83;;;2.70;99.90;;;;;;4994282;28;20196;-70
2022/03/05 00:49:20;;;;;;;40.30;23.33;;;2.60;99.90;;;;;;4997200;28;20632;-70
2022/03/05 00:51:46;;;;;;;40.93;23.00;;;2.60;99.90;;;;;;4998141;28;20195;-70
2022/03/05 00:54:11;;;;;;;44.40;24.23;;;2.60;99.90;;;;;;4997388;28;20712;-70
2022/03/05 00:56:37;;;;;;;46.40;26.07;;;2.60;99.90;;;;;;4997255;28;20195;-70
2022/03/05 00:59:03;;;;;;;46.97;23.90;;;2.60;99.90;;;;;;4998146;28;20241;-70
2022/03/05 01:01:28;;;;;;;43.67;22.87;;;2.70;99.90;;;;;;5006435;28;20299;-70
2022/03/05 01:03:54;;;;;;;36.60;24.27;;;2.70;99.90;;;;;;4996940;28;20210;-70
2022/03/05 01:06:20;;;;;;;43.03;24.17;;;2.50;99.90;;;;;;5011343;28;20196;-70
2022/03/05 01:08:45;;;;;;;40.50;23.07;;;2.50;99.90;;;;;;5004609;28;20230;-71
2022/03/05 01:11:15;;;;;;;41.93;23.00;;;2.40;99.90;;;;;;4995207;28;20192;-71
2022/03/05 01:13:41;;;;;;;48.23;24.70;;;2.40;99.90;;;;;;5006141;28;20555;-69
2022/03/05 01:16:07;;;;;;;49.73;24.93;;;2.40;99.90;;;;;;5010521;28;20191;-70
2022/03/05 01:18:32;;;;;;;44.73;22.57;;;2.40;99.90;;;;;;5014343;28;20192;-70
2022/03/05 01:20:58;;;;;;;38.27;21.77;;;2.30;99.90;;;;;;4994252;28;20266;-70
2022/03/05 01:23:24;;;;;;;47.17;25.00;;;2.30;99.90;;;;;;4996320;28;20616;-70
2022/03/05 01:25:49;;;;;;;42.27;23.40;;;2.30;99.90;;;;;;4995410;28;20200;-71
2022/03/05 01:28:18;;;;;;;41.40;24.57;;;2.20;99.90;;;;;;5014217;28;20551;-70
2022/03/05 01:30:44;;;;;;;42.80;25.23;;;2.10;99.90;;;;;;4997687;28;20210;-70
2022/03/05 01:33:15;;;;;;;40.73;23.40;;;2.10;99.90;;;;;;4979750;28;20559;-70
2022/03/05 01:35:41;;;;;;;49.30;24.53;;;2.10;99.90;;;;;;5005141;28;20187;-70
2022/03/05 01:38:09;;;;;;;42.17;23.77;;;2.10;99.90;;;;;;4983823;28;20188;-70
2022/03/05 01:40:35;;;;;;;48.00;25.10;;;2.00;99.90;;;;;;5000294;28;20195;-70
2022/03/05 01:43:01;;;;;;;45.77;25.73;;;2.00;99.90;;;;;;5007532;28;20203;-70
2022/03/05 01:45:27;;;;;;;45.03;26.13;;;2.00;99.90;;;;;;4998024;28;20191;-70
2022/03/05 01:47:53;;;;;;;50.40;26.00;;;1.90;99.90;;;;;;5013552;28;20178;-70
2022/03/05 01:50:18;;;;;;;53.33;26.17;;;1.90;99.90;;;;;;4994536;28;20551;-71
2022/03/05 01:52:44;;;;;;;49.10;26.57;;;1.90;99.90;;;;;;5013609;28;20187;-70
2022/03/05 01:55:12;;;;;;;49.63;24.90;;;1.90;99.90;;;;;;5014913;28;20203;-70
2022/03/05 01:57:39;;;;;;;49.50;25.33;;;1.90;99.90;;;;;;5014568;28;20330;-70
2022/03/05 02:00:07;;;;;;;42.57;25.27;;;1.90;99.90;;;;;;5004096;28;20232;-70
2022/03/05 02:02:32;;;;;;;46.27;24.10;;;1.80;99.90;;;;;;4997085;28;20272;-70
2022/03/05 02:04:58;;;;;;;50.40;24.40;;;1.80;99.90;;;;;;4997620;28;20707;-70
2022/03/05 02:07:24;;;;;;;47.13;24.03;;;1.80;99.90;;;;;;4996745;28;20217;-70
2022/03/05 02:09:52;;;;;;;47.87;25.03;;;1.80;99.90;;;;;;5010366;28;20595;-69
2022/03/05 02:12:18;;;;;;;52.83;26.50;;;1.90;99.90;;;;;;5013048;28;20798;-69
2022/03/05 02:14:47;;;;;;;46.03;25.97;;;1.80;99.90;;;;;;4993449;28;20222;-69
2022/03/05 02:17:12;;;;;;;51.27;26.33;;;1.80;99.90;;;;;;4993708;28;20194;-69
2022/03/05 02:19:38;;;;;;;50.87;26.20;;;1.70;99.90;;;;;;5005500;28;20700;-70
2022/03/05 02:22:06;;;;;;;45.40;22.93;;;1.70;99.90;;;;;;5014052;28;20598;-70
2022/03/05 02:24:32;;;;;;;45.07;28.10;;;1.70;99.90;;;;;;5013614;28;20308;-70
2022/03/05 02:27:03;;;;;;;44.53;24.27;;;1.70;99.90;;;;;;5004119;28;20203;-69
2022/03/05 02:29:31;;;;;;;41.90;24.53;;;1.60;99.90;;;;;;4994158;28;20200;-69
2022/03/05 02:31:57;;;;;;;44.40;24.97;;;1.60;99.90;;;;;;5009240;28;20198;-70
2022/03/05 02:34:22;;;;;;;46.63;24.97;;;1.60;99.90;;;;;;5003859;28;20199;-70
2022/03/05 02:36:48;;;;;;;50.47;25.20;;;1.60;99.90;;;;;;5012887;28;20191;-69
2022/03/05 02:39:14;;;;;;;39.37;23.40;;;1.50;99.90;;;;;;5013174;28;20217;-73
2022/03/05 02:41:40;;;;;;;45.47;24.97;;;1.50;99.90;;;;;;4997232;28;20199;-69
2022/03/05 02:44:06;;;;;;;47.57;25.57;;;1.50;99.90;;;;;;5012581;28;20214;-69
2022/03/05 02:46:34;;;;;;;44.70;25.50;;;1.50;99.90;;;;;;5012707;28;20190;-69
2022/03/05 02:49:00;;;;;;;41.80;25.60;;;1.40;99.90;;;;;;5001759;28;20198;-69
2022/03/05 02:51:25;;;;;;;54.93;26.07;;;1.40;99.90;;;;;;4995362;28;20241;-69
2022/03/05 02:53:51;;;;;;;43.97;25.60;;;1.30;99.90;;;;;;4995356;28;20190;-69
2022/03/05 02:56:17;;;;;;;40.80;24.13;;;1.30;99.90;;;;;;4993977;28;20180;-69
2022/03/05 02:58:43;;;;;;;44.07;24.57;;;1.30;99.90;;;;;;5000191;28;20191;-69
2022/03/05 03:01:09;;;;;;;46.40;25.33;;;1.30;99.90;;;;;;5012620;28;20194;-69
2022/03/05 03:03:35;;;;;;;52.20;25.83;;;1.30;99.90;;;;;;5008001;28;20220;-71
2022/03/05 03:06:03;;;;;;;53.63;25.00;;;1.30;99.90;;;;;;4995017;28;20317;-69
2022/03/05 03:08:29;;;;;;;39.87;23.13;;;1.30;99.90;;;;;;4996613;28;20304;-69
2022/03/05 03:10:54;;;;;;;46.37;26.70;;;1.30;99.90;;;;;;5003567;28;20201;-69
2022/03/05 03:13:20;;;;;;;44.63;26.30;;;1.40;99.90;;;;;;5008904;28;20646;-69
2022/03/05 03:15:46;;;;;;;49.30;25.13;;;1.40;99.90;;;;;;5009535;28;20652;-69
2022/03/05 03:18:11;;;;;;;43.07;25.47;;;1.30;99.90;;;;;;5007293;28;20638;-69
2022/03/05 03:20:37;;;;;;;46.60;22.87;;;1.30;99.90;;;;;;5001263;28;20189;-70
2022/03/05 03:23:03;;;;;;;41.60;24.53;;;1.20;99.90;;;;;;4976963;28;20281;-69
2022/03/05 03:25:28;;;;;;;46.87;23.43;;;1.20;99.90;;;;;;5002689;28;20907;-70
2022/03/05 03:27:54;;;;;;;54.37;24.73;;;1.20;99.90;;;;;;4993255;28;20196;-69
2022/03/05 03:30:20;;;;;;;47.13;23.23;;;1.10;99.90;;;;;;4993764;28;20275;-69
2022/03/05 03:32:46;;;;;;;43.50;23.03;;;1.10;99.90;;;;;;5011238;28;20185;-69
2022/03/05 03:35:14;;;;;;;47.70;23.27;;;1.00;99.90;;;;;;5012977;28;20327;-71
2022/03/05 03:37:41;;;;;;;49.57;25.13;;;1.00;99.90;;;;;;5013410;28;20189;-69
2022/03/05 03:40:09;;;;;;;44.83;23.97;;;1.00;99.90;;;;;;4997753;28;20189;-69
2022/03/05 03:42:35;;;;;;;35.93;20.93;;;1.00;99.90;;;;;;5011758;28;20199;-69
2022/03/05 03:45:02;;;;;;;47.20;24.33;;;1.00;99.90;;;;;;4993255;28;20304;-69
2022/03/05 03:47:27;;;;;;;46.17;24.57;;;1.00;99.90;;;;;;5008348;28;20197;-69
2022/03/05 03:49:53;;;;;;;52.13;25.03;;;0.90;99.90;;;;;;5003308;28;20233;-68
2022/03/05 03:52:19;;;;;;;41.30;21.80;;;0.90;99.90;;;;;;5011872;28;20273;-68
2022/03/05 03:54:47;;;;;;;49.40;23.73;;;0.90;99.90;;;;;;5008385;28;20544;-68
2022/03/05 03:57:13;;;;;;;37.73;21.63;;;0.90;99.90;;;;;;4993217;28;20342;-69
2022/03/05 03:59:39;;;;;;;44.37;24.17;;;0.90;99.90;;;;;;5011343;28;20266;-68
2022/03/05 04:02:08;;;;;;;40.67;22.63;;;0.80;99.90;;;;;;5007969;28;20190;-70
2022/03/05 04:04:34;;;;;;;39.90;23.63;;;0.80;99.90;;;;;;4978983;28;20208;-68
2022/03/05 04:09:44;;;;;;;38.27;19.73;;;0.80;99.90;;;;;;4994375;28;20202;-68
2022/03/05 04:12:09;;;;;;;47.07;24.57;;;0.70;99.90;;;;;;5000026;28;20191;-68
2022/03/05 04:14:38;;;;;;;36.97;21.70;;;0.70;99.90;;;;;;5011474;28;20193;-68
2022/03/05 04:17:04;;;;;;;44.30;24.23;;;0.70;99.90;;;;;;5008595;28;20561;-68
2022/03/05 04:19:29;;;;;;;37.83;21.03;;;0.70;99.90;;;;;;4993990;28;20598;-68
2022/03/05 04:21:55;;;;;;;42.90;24.27;;;0.70;99.90;;;;;;5008974;28;20245;-68
2022/03/05 04:24:21;;;;;;;41.97;23.30;;;0.60;99.90;;;;;;5011576;28;20566;-68
2022/03/05 04:26:46;;;;;;;37.20;22.30;;;0.60;99.90;;;;;;4998767;28;20668;-69
2022/03/05 04:29:12;;;;;;;41.47;23.93;;;0.60;99.90;;;;;;4996898;28;20223;-68
2022/03/05 04:31:38;;;;;;;42.03;23.93;;;0.60;99.90;;;;;;4997369;28;20247;-68
2022/03/05 04:34:04;;;;;;;41.17;22.87;;;0.60;99.90;;;;;;4991408;28;20199;-69
2022/03/05 04:36:29;;;;;;;39.83;22.03;;;0.60;99.90;;;;;;5007564;28;20202;-68
2022/03/05 04:38:55;;;;;;;39.83;22.77;;;0.60;99.90;;;;;;5002125;28;20192;-68
2022/03/05 04:41:22;;;;;;;42.37;22.27;;;0.60;99.90;;;;;;4997502;28;20204;-68
2022/03/05 04:43:50;;;;;;;42.17;23.40;;;0.60;99.90;;;;;;4997757;28;20228;-68
2022/03/05 04:46:16;;;;;;;38.90;23.10;;;0.60;99.90;;;;;;4996623;28;20665;-68
2022/03/05 04:48:42;;;;;;;44.43;22.97;;;0.50;99.90;;;;;;4980056;28;20263;-68
2022/03/05 04:51:07;;;;;;;41.83;22.40;;;0.50;99.90;;;;;;5013366;28;20551;-68
2022/03/05 04:53:33;;;;;;;39.67;22.70;;;0.60;99.90;;;;;;5007235;28;20199;-68
2022/03/05 04:55:59;;;;;;;42.87;21.83;;;0.50;99.90;;;;;;4996790;28;20227;-68
2022/03/05 04:58:24;;;;;;;42.27;21.73;;;0.40;99.90;;;;;;4998308;28;20214;-68
2022/03/05 05:00:50;;;;;;;50.03;24.47;;;0.40;99.90;;;;;;5010800;28;20272;-68
2022/03/05 05:03:16;;;;;;;45.10;21.80;;;0.40;99.90;;;;;;4997510;28;20213;-68
2022/03/05 05:05:41;;;;;;;43.57;20.23;;;0.40;99.90;;;;;;4979553;28;20203;-68
2022/03/05 05:08:07;;;;;;;38.77;22.10;;;0.40;99.90;;;;;;5005162;28;20236;-68
2022/03/05 05:10:33;;;;;;;47.50;22.37;;;0.40;99.90;;;;;;5010429;28;20269;-68
2022/03/05 05:12:59;;;;;;;44.40;22.47;;;0.40;99.90;;;;;;4995439;28;20215;-68
2022/03/05 05:15:25;;;;;;;52.90;23.90;;;0.40;99.90;;;;;;4995836;28;20188;-68
2022/03/05 05:17:50;;;;;;;50.00;24.90;;;0.40;99.90;;;;;;5005451;28;20188;-68
2022/03/05 05:20:16;;;;;;;35.73;21.87;;;0.30;99.90;;;;;;4995900;28;20649;-68
2022/03/05 05:22:41;;;;;;;38.60;23.93;;;0.30;99.90;;;;;;4995258;28;20188;-68
2022/03/05 05:25:08;;;;;;;45.77;25.57;;;0.40;99.90;;;;;;4978650;28;20251;-68
2022/03/05 05:27:38;;;;;;;40.03;21.00;;;0.30;99.90;;;;;;5013757;28;20266;-68
2022/03/05 05:30:05;;;;;;;40.10;21.53;;;0.20;99.90;;;;;;4993844;28;20242;-68
2022/03/05 05:32:31;;;;;;;40.27;22.03;;;0.20;99.90;;;;;;5008629;28;20272;-68
2022/03/05 05:34:56;;;;;;;32.30;20.83;;;0.30;99.90;;;;;;4987905;28;20642;-68
2022/03/05 05:37:22;;;;;;;35.53;21.23;;;0.30;99.90;;;;;;5002655;28;20315;-68
2022/03/05 05:39:48;;;;;;;44.97;22.63;;;0.30;99.90;;;;;;5006115;28;20199;-68
2022/03/05 05:42:14;;;;;;;42.27;22.17;;;0.30;99.90;;;;;;5007410;28;20637;-67
2022/03/05 05:44:40;;;;;;;38.37;21.27;;;0.30;99.90;;;;;;4995120;28;20684;-67
2022/03/05 05:47:06;;;;;;;46.93;23.17;;;0.30;99.90;;;;;;4996087;28;20192;-67
2022/03/05 05:49:32;;;;;;;39.00;21.10;;;0.20;99.90;;;;;;4995740;28;20192;-68
2022/03/05 05:51:57;;;;;;;43.30;23.13;;;0.20;99.90;;;;;;4996022;28;20556;-68
2022/03/05 05:54:23;;;;;;;42.27;21.17;;;0.10;99.90;;;;;;5010489;28;20670;-67
2022/03/05 05:56:49;;;;;;;39.83;19.77;;;0.20;99.90;;;;;;4995051;28;20668;-68
2022/03/05 05:59:16;;;;;;;40.67;23.00;;;0.20;99.90;;;;;;5010408;28;20194;-68
2022/03/05 06:01:42;;;;;;;48.47;23.80;;;0.10;99.90;;;;;;4999987;28;20270;-67
2022/03/05 06:04:07;;;;;;;39.07;20.90;;;0.10;99.90;;;;;;5008320;28;20245;-68
2022/03/05 06:06:33;;;;;;;43.47;22.33;;;0.00;99.90;;;;;;4954847;28;1103495;-68
2022/03/05 06:08:59;;;;;;;49.23;23.80;;;0.00;99.90;;;;;;5009867;28;20560;-67
2022/03/05 06:11:25;;;;;;;39.20;22.47;;;0.00;99.90;;;;;;4996041;28;20286;-67
2022/03/05 06:13:50;;;;;;;43.43;21.60;;;0.00;99.90;;;;;;4994494;28;20279;-67
2022/03/05 06:16:16;;;;;;;38.33;20.87;;;0.10;99.90;;;;;;5014104;28;20218;-67
2022/03/05 06:18:42;;;;;;;41.10;22.67;;;0.00;99.90;;;;;;5014455;28;20199;-68
2022/03/05 06:21:08;;;;;;;41.80;22.10;;;0.00;99.90;;;;;;4984068;28;20211;-70
2022/03/05 06:23:35;;;;;;;37.73;21.33;;;0.00;99.90;;;;;;5011311;28;20222;-67
2022/03/05 06:26:01;;;;;;;41.33;21.77;;;0.00;99.90;;;;;;5014591;28;20184;-67
2022/03/05 06:28:27;;;;;;;38.80;21.80;;;-0.10;99.90;;;;;;5000206;28;20266;-67
2022/03/05 06:30:53;;;;;;;41.60;21.13;;;0.00;99.90;;;;;;4996078;28;20192;-69
2022/03/05 06:33:19;;;;;;;37.27;21.03;;;0.00;99.90;;;;;;5005599;28;20195;-67
2022/03/05 06:35:44;;;;;;;39.57;20.73;;;0.00;99.90;;;;;;5004741;28;20192;-67
2022/03/05 06:38:14;;;;;;;50.20;23.47;;;0.00;99.90;;;;;;4994070;28;20192;-67
2022/03/05 06:40:40;;;;;;;40.07;21.30;;;0.00;99.90;;;;;;5002654;28;20226;-68
2022/03/05 06:43:06;;;;;;;41.23;21.83;;;0.00;99.90;;;;;;5013060;28;20578;-67
2022/03/05 06:45:32;;;;;;;49.37;25.47;;;0.10;99.90;;;;;;5004312;28;20256;-68
2022/03/05 06:47:57;;;;;;;35.17;21.87;;;0.10;99.90;;;;;;4996773;28;20274;-67
2022/03/05 06:50:23;;;;;;;40.97;23.23;;;0.10;99.90;;;;;;4993594;28;20196;-68
2022/03/05 06:52:49;;;;;;;44.43;24.30;;;0.10;99.90;;;;;;4993863;28;20664;-67
2022/03/05 06:55:16;;;;;;;48.57;23.30;;;0.20;99.90;;;;;;4994086;28;20203;-68
2022/03/05 06:57:43;;;;;;;43.30;24.37;;;0.20;99.90;;;;;;5001078;28;20652;-67
2022/03/05 07:00:11;;;;;;;38.30;23.33;;;0.30;99.90;;;;;;4998032;28;20303;-68
2022/03/05 07:02:36;;;;;;;51.77;25.83;;;0.30;99.90;;;;;;5009571;28;20202;-68
2022/03/05 07:05:03;;;;;;;46.37;25.90;;;0.40;99.90;;;;;;4995397;28;20675;-68
2022/03/05 07:07:28;;;;;;;43.50;23.33;;;0.40;99.90;;;;;;5011292;28;20211;-68
2022/03/05 07:09:54;;;;;;;40.87;23.07;;;0.50;99.90;;;;;;5011079;28;20254;-67
2022/03/05 07:12:20;;;;;;;39.50;23.43;;;0.50;99.90;;;;;;5011528;28;20183;-67
2022/03/05 07:14:49;;;;;;;41.67;22.47;;;0.60;99.90;;;;;;5004977;28;20203;-67
2022/03/05 07:17:18;;;;;;;41.33;23.27;;;0.60;99.90;;;;;;5009257;28;20191;-68
2022/03/05 07:19:45;;;;;;;39.97;22.93;;;0.70;99.90;;;;;;4999478;28;20188;-68
2022/03/05 07:22:11;;;;;;;43.33;23.97;;;0.70;99.90;;;;;;4994379;28;20246;-68
2022/03/05 07:24:36;;;;;;;43.27;22.40;;;0.80;99.90;;;;;;5002237;28;20762;-68
2022/03/05 07:27:02;;;;;;;37.20;21.97;;;0.90;99.90;;;;;;4982957;28;20300;-68
2022/03/05 07:29:28;;;;;;;45.67;23.67;;;1.70;99.90;;;;;;4968360;28;20647;-68
2022/03/05 07:31:54;;;;;;;43.87;24.47;;;3.30;99.90;;;;;;5009451;28;20246;-68
2022/03/05 07:34:19;;;;;;;43.77;24.30;;;5.00;99.90;;;;;;4998988;28;20191;-68
2022/03/05 07:36:45;;;;;;;36.53;23.07;;;6.60;99.90;;;;;;4994494;28;20238;-70
2022/03/05 07:39:11;;;;;;;38.33;21.70;;;7.70;99.90;;;;;;4993798;28;20196;-68
2022/03/05 07:41:37;;;;;;;37.07;20.87;;;8.70;99.90;;;;;;4993291;28;20249;-68
2022/03/05 07:44:07;;;;;;;37.07;21.10;;;9.60;99.90;;;;;;4998596;28;20211;-68
2022/03/05 07:46:35;;;;;;;32.87;19.80;;;10.30;99.90;;;;;;5005298;28;20192;-68
2022/03/05 07:49:01;;;;;;;35.43;19.33;;;10.90;99.90;;;;;;4997659;28;20191;-72
2022/03/05 07:51:27;;;;;;;29.57;19.60;;;11.00;99.90;;;;;;5008151;28;20183;-73
2022/03/05 07:53:53;;;;;;;37.63;20.70;;;11.30;99.90;;;;;;5008597;28;20213;-68
2022/03/05 07:56:20;;;;;;;33.83;19.47;;;11.60;99.90;;;;;;5002529;28;20192;-68
2022/03/05 07:58:46;;;;;;;36.07;20.43;;;11.90;99.90;;;;;;5005680;28;20179;-70
2022/03/05 08:01:12;;;;;;;31.88;20.33;;;12.20;99.90;;;;;;5011706;28;20318;-69
2022/03/05 08:03:37;;;;;;;31.55;20.77;;;12.30;99.90;;;;;;4980012;28;20227;-68
2022/03/05 08:06:03;;;;;;;41.42;21.70;;;12.90;99.90;;;;;;5010601;28;20190;-68
2022/03/05 08:08:29;;;;;;;33.03;20.65;;;13.30;99.90;;;;;;5011594;28;20681;-68
2022/03/05 08:10:55;;;;;;;33.38;18.63;;;13.00;99.90;;;;;;5012403;28;20194;-69
2022/03/05 08:13:21;;;;;;;31.30;19.40;;;12.10;99.90;;;;;;5010846;28;20286;-69
2022/03/05 08:15:48;;;;;;;31.33;19.05;;;11.70;99.90;;;;;;5011965;28;20230;-72
2022/03/05 08:18:13;;;;;;;33.80;20.88;;;12.00;99.90;;;;;;5012548;28;20183;-79
2022/03/05 08:20:39;;;;;;;32.88;20.40;;;12.60;99.90;;;;;;5012149;28;20249;-69
2022/03/05 08:23:05;;;;;;;36.72;19.80;;;13.10;99.90;;;;;;5011011;28;20217;-69
2022/03/05 08:25:31;;;;;;;34.60;19.70;;;12.60;99.90;;;;;;5010196;28;20223;-68
2022/03/05 08:27:56;;;;;;;33.03;20.50;;;10.90;99.90;;;;;;5011413;28;20183;-68
2022/03/05 08:30:22;;;;;;;34.13;19.57;;;10.60;99.90;;;;;;5007757;28;20187;-68
2022/03/05 08:32:48;;;;;;;30.60;19.67;;;10.90;99.90;;;;;;5012097;28;20226;-69
2022/03/05 08:35:14;;;;;;;41.50;22.87;;;10.50;99.90;;;;;;4997352;28;20188;-69
2022/03/05 08:37:41;;;;;;;41.27;22.57;;;8.90;99.90;;;;;;5004209;28;20787;-68
2022/03/05 08:40:09;;;;;;;37.30;20.47;;;8.00;99.90;;;;;;5008694;28;20195;-68
2022/03/05 08:42:35;;;;;;;34.60;20.57;;;7.70;99.90;;;;;;5011969;28;20226;-69
2022/03/05 08:45:03;;;;;;;39.17;22.43;;;7.20;99.90;;;;;;5008763;28;20493;-71
2022/03/05 08:47:29;;;;;;;33.67;22.33;;;6.70;99.90;;;;;;5010214;28;20192;-69
2022/03/05 08:49:54;;;;;;;40.30;22.03;;;6.30;99.90;;;;;;5010957;28;20191;-66
2022/03/05 08:52:20;;;;;;;43.43;23.67;;;5.90;99.90;;;;;;5011764;28;20695;-67
2022/03/05 08:54:46;;;;;;;36.97;22.43;;;5.80;99.90;;;;;;5009628;28;20270;-66
2022/03/05 08:57:11;;;;;;;35.77;21.33;;;5.70;99.90;;;;;;5011471;28;20194;-68
2022/03/05 08:59:41;;;;;;;39.97;23.07;;;5.70;99.90;;;;;;4994197;28;20198;-68
2022/03/05 09:02:08;;;;;;;46.13;23.93;;;5.90;99.90;;;;;;4996435;28;20187;-69
2022/03/05 09:04:34;;;;;;;42.40;22.80;;;6.00;99.90;;;;;;5010599;28;20222;-67
2022/03/05 09:07:01;;;;;;;37.83;23.80;;;5.90;99.90;;;;;;5009532;28;20261;-66
2022/03/05 09:09:26;;;;;;;42.37;24.10;;;5.70;99.90;;;;;;5014893;28;20186;-67
2022/03/05 09:11:52;;;;;;;39.67;22.57;;;5.80;99.90;;;;;;5015856;28;20567;-71
2022/03/05 09:14:18;;;;;;;46.50;25.40;;;5.80;99.90;;;;;;4997080;28;20219;-68
2022/03/05 09:16:44;;;;;;;38.47;22.63;;;5.60;99.90;;;;;;4995448;28;20192;-70
2022/03/05 09:19:09;;;;;;;39.57;22.13;;;5.40;99.90;;;;;;4997291;28;20203;-71
2022/03/05 09:21:36;;;;;;;36.73;21.43;;;5.20;99.90;;;;;;5012923;28;20258;-68
2022/03/05 09:24:03;;;;;;;35.57;21.10;;;5.10;99.90;;;;;;5010223;28;20303;-71
2022/03/05 09:26:29;;;;;;;45.43;23.23;;;5.00;99.90;;;;;;4996649;28;20667;-71
2022/03/05 09:28:54;;;;;;;46.50;25.57;;;5.00;99.90;;;;;;5005416;28;20286;-72
2022/03/05 09:31:20;;;;;;;39.13;23.90;;;5.10;99.90;;;;;;4996434;28;20192;-73
2022/03/05 09:33:46;;;;;;;36.27;22.13;;;5.40;99.90;;;;;;4999317;28;20191;-73
2022/03/05 09:36:11;;;;;;;35.63;22.03;;;5.50;99.90;;;;;;5015299;28;20191;-74
2022/03/05 09:38:37;;;;;;;37.90;22.03;;;5.60;99.90;;;;;;5013729;28;20187;-71
2022/03/05 09:41:05;;;;;;;41.07;23.63;;;5.80;99.90;;;;;;5015774;28;20198;-73
2022/03/05 09:43:31;;;;;;;49.20;24.90;;;6.00;99.90;;;;;;5010002;28;20230;-73
2022/03/05 09:46:00;;;;;;;36.03;22.60;;;6.20;99.90;;;;;;4996259;28;20204;-72
2022/03/05 09:48:27;;;;;;;48.47;25.37;;;6.30;99.90;;;;;;4995673;28;20207;-72
2022/03/05 09:50:54;;;;;;;41.83;23.27;;;6.50;99.90;;;;;;5011596;28;20194;-72
2022/03/05 09:53:21;;;;;;;47.10;24.57;;;6.60;99.90;;;;;;4996415;28;20184;-72
2022/03/05 09:55:49;;;;;;;43.17;23.43;;;6.70;99.90;;;;;;4995457;28;20648;-72
2022/03/05 09:58:15;;;;;;;41.70;23.30;;;6.60;99.90;;;;;;5003994;28;20190;-72
2022/03/05 10:00:40;;;;;;;42.53;23.63;;;6.60;99.90;;;;;;5013698;28;20551;-73
2022/03/05 10:03:07;;;;;;;39.90;22.40;;;6.70;99.90;;;;;;5002420;28;20667;-72
2022/03/05 10:05:34;;;;;;;44.50;25.20;;;6.80;99.90;;;;;;4996344;28;20216;-72
2022/03/05 10:08:13;;;;;;;40.57;23.57;;;6.80;99.90;;;;;;4996456;28;20662;-73
2022/03/05 10:10:51;;;;;;;47.37;24.53;;;6.90;99.90;;;;;;4995934;28;20187;-76
2022/03/05 10:13:16;;;;;;;45.83;24.60;;;6.90;99.90;;;;;;5012277;28;20171;-73
2022/03/05 10:15:42;;;;;;;46.80;24.43;;;6.90;99.90;;;;;;5011429;28;20186;-73
2022/03/05 10:18:08;;;;;;;44.67;23.70;;;6.90;99.90;;;;;;4994730;28;20191;-73
2022/03/05 10:20:42;;;;;;;43.67;23.10;;;7.00;99.90;;;;;;4993934;28;20559;-73
2022/03/05 10:23:09;;;;;;;46.23;23.97;;;7.10;99.90;;;;;;5013766;28;20184;-74
2022/03/05 10:25:40;;;;;;;42.70;26.73;;;7.10;99.90;;;;;;5014283;28;20675;-74
2022/03/05 10:28:18;;;;;;;47.50;27.00;;;7.10;99.90;;;;;;5004028;28;20192;-72
2022/03/05 10:30:49;;;;;;;45.40;23.93;;;7.10;99.90;;;;;;4995727;28;20680;-74
2022/03/05 10:33:25;;;;;;;42.57;25.13;;;7.10;99.90;;;;;;4994657;28;20219;-74
2022/03/05 10:35:51;;;;;;;45.40;24.30;;;7.20;99.90;;;;;;5014253;28;20246;-73
2022/03/05 10:38:17;;;;;;;40.93;24.63;;;7.30;99.90;;;;;;5013088;28;20187;-73
2022/03/05 10:40:43;;;;;;;42.33;23.23;;;7.20;99.90;;;;;;5010597;28;20187;-74
2022/03/05 10:43:09;;;;;;;45.97;26.17;;;7.40;99.90;;;;;;4994445;28;20195;-73
2022/03/05 10:45:55;;;;;;;47.73;24.60;;;7.60;99.90;;;;;;4995664;28;20238;-75
2022/03/05 10:48:32;;;;;;;45.83;24.50;;;7.50;99.90;;;;;;5009415;28;20545;-75
2022/03/05 10:51:00;;;;;;;44.07;24.23;;;7.60;99.90;;;;;;5009761;28;20267;-75
2022/03/05 10:53:36;;;;;;;42.80;23.87;;;7.60;99.90;;;;;;5018252;28;20194;-75
2022/03/05 10:56:28;;;;;;;39.70;23.03;;;7.60;99.90;;;;;;5000197;28;20560;-75
2022/03/05 10:59:03;;;;;;;47.87;24.13;;;7.70;99.90;;;;;;4998667;28;20183;-76
2022/03/05 11:01:29;;;;;;;36.60;22.83;;;7.90;99.90;;;;;;4994878;28;20184;-76
2022/03/05 11:03:56;;;;;;;40.70;24.60;;;7.70;99.90;;;;;;4991817;28;20215;-76
2022/03/05 11:06:23;;;;;;;46.67;25.20;;;7.70;99.90;;;;;;5012411;28;20183;-76
2022/03/05 11:08:50;;;;;;;44.13;24.07;;;7.90;99.90;;;;;;4995671;28;20188;-75
2022/03/05 11:11:17;;;;;;;44.43;25.23;;;8.10;99.90;;;;;;5005883;28;20553;-76
2022/03/05 11:13:43;;;;;;;39.70;23.67;;;8.30;99.90;;;;;;5007107;28;20192;-75
2022/03/05 11:16:10;;;;;;;44.63;24.13;;;8.20;99.90;;;;;;5010390;28;20219;-76
2022/03/05 11:18:40;;;;;;;44.93;24.33;;;8.00;99.90;;;;;;5003828;28;20230;-76
2022/03/05 11:21:06;;;;;;;48.17;24.30;;;8.10;99.90;;;;;;5001004;28;20210;-75
2022/03/05 11:23:34;;;;;;;44.17;25.00;;;8.10;99.90;;;;;;5013627;28;20191;-76
2022/03/05 11:26:00;;;;;;;44.23;26.23;;;8.10;99.90;;;;;;4999192;28;20188;-76
2022/03/05 11:28:35;;;;;;;47.03;24.60;;;8.40;99.90;;;;;;4995448;28;20191;-74
2022/03/05 11:31:06;;;;;;;44.37;24.27;;;8.30;99.90;;;;;;4994735;28;20176;-75
2022/03/05 11:33:38;;;;;;;37.93;23.73;;;8.00;99.90;;;;;;5003570;28;20252;-76
2022/03/05 11:36:06;;;;;;;45.87;24.50;;;8.00;99.90;;;;;;5000059;28;20648;-76
2022/03/05 11:38:36;;;;;;;42.17;24.83;;;8.10;99.90;;;;;;5001385;28;20195;-76
2022/03/05 11:41:27;;;;;;;44.07;26.00;;;8.70;99.90;;;;;;5007960;28;20184;-76
2022/03/05 11:43:53;;;;;;;51.20;24.83;;;8.50;99.90;;;;;;4991578;28;20228;-76
2022/03/05 11:46:24;;;;;;;50.80;25.73;;;8.40;99.90;;;;;;5008778;28;20219;-76
2022/03/05 11:49:01;;;;;;;38.40;24.73;;;8.40;99.90;;;;;;4992540;28;20265;-76
2022/03/05 11:51:27;;;;;;;42.10;26.97;;;8.70;99.90;;;;;;5006602;28;20187;-76
2022/03/05 11:54:04;;;;;;;46.30;26.53;;;8.80;99.90;;;;;;5000897;28;20210;-76
2022/03/05 11:56:29;;;;;;;39.43;24.60;;;8.60;99.90;;;;;;5007077;28;20326;-76
2022/03/05 11:58:55;;;;;;;42.37;25.20;;;8.70;99.90;;;;;;4996537;28;20612;-76
2022/03/05 12:01:39;;;;;;;48.10;27.87;;;8.80;99.90;;;;;;5008642;28;20192;-76
2022/03/05 12:04:26;;;;;;;45.37;24.60;;;8.80;99.90;;;;;;5000141;28;20295;-76
2022/03/05 12:07:03;;;;;;;42.47;22.97;;;8.80;99.90;;;;;;5011678;28;20655;-76
2022/03/05 12:09:33;;;;;;;44.10;23.80;;;8.90;99.90;;;;;;5003340;28;20188;-76
2022/03/05 12:11:59;;;;;;;46.80;24.60;;;9.00;99.90;;;;;;4992966;28;20545;-76
2022/03/05 12:15:03;;;;;;;38.90;24.77;;;9.10;99.90;;;;;;5019617;28;20563;-77
2022/03/05 12:17:34;;;;;;;40.80;22.77;;;9.10;99.90;;;;;;5012995;28;20237;-77
2022/03/05 12:20:02;;;;;;;43.67;23.47;;;9.10;99.90;;;;;;4992437;28;20274;-77
2022/03/05 12:22:28;;;;;;;35.53;21.63;;;9.20;99.90;;;;;;4994038;28;20176;-77
2022/03/05 12:24:54;;;;;;;40.97;24.37;;;9.30;99.90;;;;;;4993948;28;20228;-76
2022/03/05 12:27:24;;;;;;;47.70;26.47;;;9.40;99.90;;;;;;4992783;28;20191;-76
2022/03/05 12:29:52;;;;;;;44.63;22.47;;;9.30;99.90;;;;;;4994728;28;20192;-75
2022/03/05 12:32:19;;;;;;;42.60;23.53;;;9.30;99.90;;;;;;5007301;28;20179;-76
2022/03/05 12:34:47;;;;;;;32.70;21.37;;;9.30;99.90;;;;;;4994163;28;20675;-76
2022/03/05 12:37:17;;;;;;;44.63;22.60;;;9.60;99.90;;;;;;4994005;28;20204;-75